Time;durP1;ratioP1;P1;durP2;ratioP2;P2;SDS_P1;SDS_P2;PMS_P1;PMS_P2;Temp;Humidity;BMP_temperature;BMP_pressure;BME280_temperature;BME280_humidity;BME280_pressure;Samples;Min_cycle;Max_cycle;Signal;HPM_P1;HPM_P2
2022/12/14 00:01:10;;;;;;;21.13;10.43;;;;;;;-3.49;85.25;100536.03;5147399;27;20033;-81
2022/12/14 00:03:36;;;;;;;17.13;9.82;;;;;;;-3.46;85.36;100533.53;5147535;27;20076;-80
2022/12/14 00:06:21;;;;;;;23.55;10.48;;;;;;;-3.45;85.43;100537.00;5120187;27;20019;-81
2022/12/14 00:08:48;;;;;;;19.25;9.77;;;;;;;-3.49;84.97;100525.69;5118495;27;20084;-81
2022/12/14 00:11:15;;;;;;;18.83;10.35;;;;;;;-3.49;85.16;100515.34;5141919;27;20034;-81
2022/12/14 00:13:41;;;;;;;25.42;9.30;;;;;;;-3.50;84.54;100513.56;5146069;27;20029;-81
2022/12/14 00:16:13;;;;;;;17.92;9.52;;;;;;;-3.51;84.73;100495.38;5136775;27;20033;-81
2022/12/14 00:18:38;;;;;;;;;;;;;;;-3.45;85.38;100500.75;5112089;27;20026;-81
2022/12/14 00:21:05;;;;;;;16.55;8.70;;;;;;;-3.49;85.00;100499.81;5122237;27;20400;-80
2022/12/14 00:23:31;;;;;;;19.45;8.93;;;;;;;-3.51;84.46;100506.66;5118306;27;20075;-81
2022/12/14 00:25:56;;;;;;;16.92;9.15;;;;;;;-3.51;85.24;100500.56;5118488;27;20035;-81
2022/12/14 00:28:22;;;;;;;19.00;9.18;;;;;;;-3.52;84.15;100498.81;5114246;27;20486;-81
2022/12/14 00:30:47;;;;;;;19.35;9.85;;;;;;;-3.55;84.46;100497.03;5132326;27;20117;-81
2022/12/14 00:33:12;;;;;;;16.75;8.88;;;;;;;-3.55;84.57;100502.19;5118069;27;20482;-81
2022/12/14 00:35:38;;;;;;;16.55;8.45;;;;;;;-3.54;84.69;100497.88;5147438;27;20064;-81
2022/12/14 00:38:03;;;;;;;17.15;8.23;;;;;;;-3.55;84.31;100499.59;5087987;27;20386;-81
2022/12/14 00:40:29;;;;;;;21.27;9.88;;;;;;;-3.56;84.05;100494.38;5126371;27;20493;-81
2022/12/14 00:42:55;;;;;;;25.17;9.32;;;;;;;-3.57;83.79;100490.03;5124374;27;20031;-81
2022/12/14 00:45:20;;;;;;;17.88;9.63;;;;;;;-3.58;83.47;100489.16;5106855;27;20087;-81
2022/12/14 00:47:45;;;;;;;21.70;9.50;;;;;;;-3.58;84.19;100478.81;5109844;27;20486;-81
2022/12/14 00:50:11;;;;;;;19.40;9.27;;;;;;;-3.60;83.56;100471.84;5117860;27;20138;-81
2022/12/14 00:52:36;;;;;;;22.63;10.45;;;;;;;-3.62;83.96;100468.31;5111093;27;20027;-81
2022/12/14 00:55:02;;;;;;;17.55;9.07;;;;;;;-3.63;83.32;100457.09;5135065;27;20047;-81
2022/12/14 00:57:29;;;;;;;17.83;9.50;;;;;;;-3.65;83.39;100450.13;5123369;27;20520;-81
2022/12/14 00:59:54;;;;;;;17.75;9.88;;;;;;;-3.65;83.03;100458.75;5147104;27;20113;-81
2022/12/14 01:02:20;;;;;;;18.75;9.75;;;;;;;-3.67;83.05;100453.53;5141954;27;20122;-81
2022/12/14 01:04:45;;;;;;;18.35;7.68;;;;;;;-3.66;83.38;100449.22;5148540;27;20084;-81
2022/12/14 01:07:11;;;;;;;15.80;8.95;;;;;;;-3.67;83.24;100444.91;5114382;27;20075;-81
2022/12/14 01:09:36;;;;;;;15.60;8.18;;;;;;;-3.67;83.12;100444.91;5136114;27;20043;-81
2022/12/14 01:12:02;;;;;;;17.85;8.85;;;;;;;-3.67;83.41;100443.19;5112502;27;20105;-80
2022/12/14 01:14:27;;;;;;;17.40;8.45;;;;;;;-3.67;82.66;100431.97;5151764;27;20023;-81
2022/12/14 01:16:52;;;;;;;18.15;8.38;;;;;;;-3.68;82.80;100436.25;5117115;27;20081;-81
2022/12/14 01:19:18;;;;;;;22.15;9.88;;;;;;;-3.68;83.04;100430.22;5131764;27;20035;-81
2022/12/14 01:21:43;;;;;;;18.83;9.70;;;;;;;-3.68;83.38;100423.31;5124862;27;20561;-81
2022/12/14 01:24:09;;;;;;;16.75;9.00;;;;;;;-3.69;83.16;100426.72;5142191;27;20023;-81
2022/12/14 01:26:37;;;;;;;19.08;9.23;;;;;;;-3.66;83.49;100428.53;5116974;27;20054;-81
2022/12/14 01:29:03;;;;;;;24.83;10.18;;;;;;;-3.66;82.85;100431.09;5120052;27;20028;-81
2022/12/14 01:31:32;;;;;;;19.05;10.30;;;;;;;-3.67;82.89;100419.03;5133431;27;20027;-81
2022/12/14 01:33:58;;;;;;;15.10;8.55;;;;;;;-3.67;83.08;100419.03;5152771;27;20038;-81
2022/12/14 01:36:27;;;;;;;23.48;9.77;;;;;;;-3.68;82.86;100414.69;5131378;27;20039;-81
2022/12/14 01:39:02;;;;;;;17.73;9.10;;;;;;;-3.65;83.19;100419.94;5135229;27;20019;-81
2022/12/14 01:41:34;;;;;;;14.55;8.77;;;;;;;-3.67;82.60;100426.78;5134653;27;20056;-80
2022/12/14 01:44:19;;;;;;;18.02;9.07;;;;;;;-3.67;82.98;100426.78;5116890;27;20064;-81
2022/12/14 01:46:56;;;;;;;16.88;9.40;;;;;;;-3.70;82.95;100427.56;5134089;27;20035;-81
2022/12/14 01:49:35;;;;;;;20.02;8.98;;;;;;;-3.69;84.02;100437.06;5120229;27;20106;-81
2022/12/14 01:52:16;;;;;;;21.60;9.65;;;;;;;-3.69;83.12;100431.91;5150542;27;20023;-81
2022/12/14 01:54:46;;;;;;;;;;;;;;;-3.64;84.36;100429.44;5144621;27;20019;-81
2022/12/14 01:57:14;;;;;;;19.80;9.75;;;;;;;-3.68;83.26;100414.69;5139225;27;20409;-81
2022/12/14 01:59:42;;;;;;;18.70;9.38;;;;;;;-3.72;83.23;100418.88;5142966;27;20022;-81
2022/12/14 02:02:10;;;;;;;18.15;8.88;;;;;;;-3.71;83.36;100422.34;5140395;27;20652;-81
2022/12/14 02:04:41;;;;;;;15.70;8.40;;;;;;;-3.68;82.90;100422.44;5141454;27;20062;-80
2022/12/14 02:07:08;;;;;;;19.90;9.07;;;;;;;-3.69;83.27;100418.09;5136878;27;20489;-81
2022/12/14 02:09:38;;;;;;;18.35;8.73;;;;;;;-3.71;82.84;100420.66;5116973;27;20023;-80
2022/12/14 02:12:11;;;;;;;19.27;9.40;;;;;;;-3.71;83.02;100412.91;5134228;27;20046;-80
2022/12/14 02:14:37;;;;;;;17.38;8.38;;;;;;;-3.72;82.98;100405.94;5149111;27;20054;-81
2022/12/14 02:17:05;;;;;;;18.55;9.68;;;;;;;-3.72;83.40;100408.53;5116066;27;20493;-80
2022/12/14 02:19:31;;;;;;;17.17;7.93;;;;;;;-3.73;83.15;100404.19;5149154;27;20521;-80
2022/12/14 02:22:15;;;;;;;21.10;9.60;;;;;;;-3.73;82.96;100406.78;5116293;27;20045;-81
2022/12/14 02:25:07;;;;;;;15.20;8.38;;;;;;;-3.73;83.09;100400.75;5134199;27;20030;-80
2022/12/14 02:27:35;;;;;;;16.00;7.60;;;;;;;-3.73;82.76;100400.75;5151931;27;20086;-80
2022/12/14 02:30:19;;;;;;;17.35;9.00;;;;;;;-3.74;82.82;100404.16;5148442;27;20078;-81
2022/12/14 02:33:01;;;;;;;15.10;8.13;;;;;;;-3.75;82.99;100394.66;5104945;27;20605;-76
2022/12/14 02:35:38;;;;;;;16.83;9.07;;;;;;;-3.76;83.03;100390.28;5111700;27;20070;-76
2022/12/14 02:38:23;;;;;;;15.23;8.40;;;;;;;-3.77;83.24;100388.53;5124393;27;20031;-75
2022/12/14 02:41:20;;;;;;;15.90;9.20;;;;;;;-3.77;83.26;100391.13;5133431;27;20489;-80
2022/12/14 02:43:59;;;;;;;16.17;7.90;;;;;;;-3.78;83.36;100389.38;5134220;27;20035;-80
2022/12/14 02:46:33;;;;;;;16.20;8.70;;;;;;;-3.82;82.78;100382.34;5134087;27;20059;-80
2022/12/14 02:49:14;;;;;;;14.55;8.38;;;;;;;-3.81;82.68;100389.28;5148259;27;20083;-80
2022/12/14 02:51:51;;;;;;;14.88;7.50;;;;;;;-3.84;83.04;100384.03;5134110;27;20041;-80
2022/12/14 02:54:23;;;;;;;17.45;9.30;;;;;;;-3.82;82.64;100392.72;5117094;27;20560;-80
2022/12/14 02:57:04;;;;;;;18.65;8.63;;;;;;;-3.85;83.15;100387.47;5135439;27;20474;-80
2022/12/14 02:59:32;;;;;;;16.83;8.23;;;;;;;-3.84;83.59;100397.81;5134583;27;20031;-80
2022/12/14 03:02:01;;;;;;;14.65;8.68;;;;;;;-3.86;83.51;100393.44;5109853;27;20106;-80
2022/12/14 03:04:27;;;;;;;17.08;9.10;;;;;;;-3.84;83.71;100386.59;5135386;27;20038;-80
2022/12/14 03:07:01;;;;;;;18.67;8.95;;;;;;;-3.85;83.13;100385.75;5115403;27;20110;-80
2022/12/14 03:09:29;;;;;;;14.63;8.20;;;;;;;-3.84;83.05;100384.88;5115504;28;20111;-81
2022/12/14 03:11:59;;;;;;;22.48;8.32;;;;;;;-3.82;83.37;100383.22;5133476;27;20034;-81
2022/12/14 03:14:44;;;;;;;15.13;8.77;;;;;;;-3.82;82.80;100385.81;5115104;27;20031;-81
2022/12/14 03:17:15;;;;;;;16.52;8.90;;;;;;;-3.83;83.26;100371.13;5133255;28;20092;-80
2022/12/14 03:19:49;;;;;;;16.85;9.00;;;;;;;-3.81;83.24;100384.09;5147936;27;20022;-80
2022/12/14 03:22:28;;;;;;;15.45;8.63;;;;;;;-3.79;83.16;100385.03;5135887;27;20404;-80
2022/12/14 03:24:59;;;;;;;16.42;8.32;;;;;;;-3.80;83.14;100376.41;5112063;28;20056;-80
2022/12/14 03:27:43;;;;;;;14.68;8.50;;;;;;;-3.79;83.33;100385.91;5132880;27;20055;-78
2022/12/14 03:30:15;;;;;;;13.48;7.53;;;;;;;-3.79;82.89;100380.72;5127716;28;20031;-79
2022/12/14 03:32:50;;;;;;;15.63;7.97;;;;;;;-3.78;83.31;100371.28;5114936;28;20035;-79
2022/12/14 03:35:31;;;;;;;14.07;8.10;;;;;;;-3.77;83.23;100358.38;5132970;27;20462;-79
2022/12/14 03:38:10;;;;;;;16.45;9.07;;;;;;;-3.79;82.86;100351.41;5134092;27;20386;-79
2022/12/14 03:40:44;;;;;;;16.85;7.95;;;;;;;-3.76;83.18;100351.47;5137133;27;20030;-79
2022/12/14 03:43:21;;;;;;;18.52;7.85;;;;;;;-3.75;82.66;100353.25;5118845;27;20031;-79
2022/12/14 03:45:56;;;;;;;15.02;7.30;;;;;;;-3.73;83.12;100351.59;5119314;27;20035;-79
2022/12/14 03:48:38;;;;;;;16.73;7.28;;;;;;;-3.73;83.91;100339.50;5142996;27;20031;-79
2022/12/14 03:51:42;;;;;;;13.93;7.63;;;;;;;-3.72;83.25;100342.97;5118557;27;20111;-79
2022/12/14 03:54:18;;;;;;;16.33;8.38;;;;;;;-3.76;82.88;100333.34;5076697;27;20046;-79
2022/12/14 03:56:55;;;;;;;15.00;8.23;;;;;;;-3.74;82.82;100331.69;5118419;27;20095;-79
2022/12/14 03:59:43;;;;;;;13.68;7.38;;;;;;;-3.72;83.06;100332.63;5136909;27;20378;-79
2022/12/14 04:02:28;;;;;;;16.20;8.73;;;;;;;-3.74;82.69;100332.56;5142599;27;20041;-79
2022/12/14 04:05:02;;;;;;;14.00;8.48;;;;;;;-3.75;83.25;100336.00;5142874;27;20084;-80
2022/12/14 04:07:39;;;;;;;14.38;7.60;;;;;;;-3.75;83.80;100330.81;5147564;27;20076;-79
2022/12/14 04:19:01;;;;;;;17.65;8.18;;;;;;;-3.80;83.42;100305.66;5150269;27;20030;-80
2022/12/14 04:21:52;;;;;;;16.50;7.97;;;;;;;-3.77;83.61;100305.75;5156055;27;20039;-79
2022/12/14 04:27:35;;;;;;;15.93;7.95;;;;;;;-3.79;83.70;100294.47;5149317;27;20051;-80
2022/12/14 04:30:03;;;;;;;16.35;7.65;;;;;;;-3.79;83.60;100300.50;5155267;27;20113;-80
2022/12/14 04:32:32;;;;;;;13.25;7.55;;;;;;;-3.77;83.52;100292.81;5150905;27;20022;-80
2022/12/14 04:35:17;;;;;;;20.75;7.35;;;;;;;-3.75;84.04;100293.72;5155475;27;20034;-80
2022/12/14 04:37:47;;;;;;;14.07;8.35;;;;;;;-3.78;83.79;100285.91;5107901;27;20164;-80
2022/12/14 04:40:24;;;;;;;17.40;7.97;;;;;;;-3.77;83.91;100282.47;5137479;27;20545;-80
2022/12/14 04:43:03;;;;;;;13.93;7.70;;;;;;;-3.81;83.75;100278.91;5127871;27;20035;-80
2022/12/14 04:45:40;;;;;;;16.92;8.23;;;;;;;-3.77;83.92;100278.16;5105755;27;20123;-80
2022/12/14 04:48:17;;;;;;;13.60;7.65;;;;;;;-3.77;83.39;100280.75;5130851;27;20030;-80
2022/12/14 04:50:52;;;;;;;16.70;8.15;;;;;;;-3.77;83.48;100278.16;5135078;27;20038;-80
2022/12/14 04:53:24;;;;;;;17.33;8.10;;;;;;;-3.77;83.43;100277.28;5156073;27;20058;-80
2022/12/14 04:56:04;;;;;;;15.20;8.55;;;;;;;-3.75;83.85;100271.31;5126566;27;20030;-80
2022/12/14 04:58:31;;;;;;;14.63;8.15;;;;;;;-3.75;83.64;100273.03;5149261;27;20108;-81
2022/12/14 05:01:03;;;;;;;13.15;7.20;;;;;;;-3.78;83.24;100267.78;5119841;27;20019;-80
2022/12/14 05:03:33;;;;;;;15.95;7.78;;;;;;;-3.77;83.48;100267.81;5130180;27;20031;-80
2022/12/14 05:06:23;;;;;;;16.00;8.48;;;;;;;-3.76;83.60;100263.50;5132973;27;20129;-80
2022/12/14 05:09:15;;;;;;;15.98;8.60;;;;;;;-3.75;83.96;100260.09;5136708;27;20382;-81
2022/12/14 05:12:07;;;;;;;15.75;7.72;;;;;;;-3.77;83.50;100262.63;5151199;27;20031;-80
2022/12/14 05:15:14;;;;;;;17.95;8.07;;;;;;;-3.78;83.79;100260.03;5124906;27;20035;-81
2022/12/14 05:17:41;;;;;;;17.25;7.65;;;;;;;-3.77;83.32;100257.47;5153226;27;20402;-81
2022/12/14 05:20:19;;;;;;;16.00;7.95;;;;;;;-3.78;83.61;100258.31;5154542;27;20474;-80
2022/12/14 05:22:44;;;;;;;17.85;7.93;;;;;;;-3.78;83.07;100257.44;5148180;27;20041;-80
2022/12/14 05:25:10;;;;;;;19.05;7.93;;;;;;;-3.79;83.63;100258.25;5136277;27;20023;-81
2022/12/14 05:27:36;;;;;;;18.38;8.10;;;;;;;-3.78;83.61;100255.72;5127690;27;20122;-81
2022/12/14 05:30:02;;;;;;;22.35;8.77;;;;;;;-3.79;83.26;100247.91;5155338;27;20355;-81
2022/12/14 05:32:28;;;;;;;13.52;7.63;;;;;;;-3.78;83.26;100252.25;5131352;27;20558;-81
2022/12/14 05:34:54;;;;;;;15.18;8.13;;;;;;;-3.76;83.04;100254.06;5111400;27;20034;-81
2022/12/14 05:37:19;;;;;;;14.52;8.18;;;;;;;-3.76;83.38;100251.47;5129367;27;20042;-81
2022/12/14 05:39:45;;;;;;;15.35;7.43;;;;;;;-3.77;83.17;100251.41;5153316;27;20027;-80
2022/12/14 05:42:10;;;;;;;17.80;8.00;;;;;;;-3.76;83.59;100251.47;5118611;27;20054;-81
2022/12/14 05:44:35;;;;;;;15.23;8.23;;;;;;;-3.75;83.15;100245.44;5136591;27;20039;-80
2022/12/14 05:47:01;;;;;;;16.65;7.97;;;;;;;-3.75;83.63;100249.75;5130399;27;20117;-80
2022/12/14 05:49:26;;;;;;;13.13;7.07;;;;;;;-3.74;83.21;100246.31;5131178;27;20481;-81
2022/12/14 05:51:52;;;;;;;17.08;7.63;;;;;;;-3.75;83.33;100249.75;5118574;27;20034;-81
2022/12/14 05:54:17;;;;;;;13.10;7.15;;;;;;;-3.75;83.16;100242.84;5101624;27;20018;-80
2022/12/14 05:56:43;;;;;;;13.43;7.57;;;;;;;-3.73;83.31;100248.09;5117907;27;20038;-81
2022/12/14 05:59:14;;;;;;;16.40;7.40;;;;;;;-3.73;83.15;100242.91;5134453;27;20041;-80
2022/12/14 06:01:40;;;;;;;16.55;8.07;;;;;;;-3.74;83.09;100244.59;5154785;27;20501;-80
2022/12/14 06:04:06;;;;;;;13.20;7.72;;;;;;;-3.76;83.29;100251.47;5143714;27;20115;-80
2022/12/14 06:06:32;;;;;;;18.40;8.88;;;;;;;-3.75;83.56;100242.84;5105972;27;20501;-80
2022/12/14 06:08:58;;;;;;;16.20;7.55;;;;;;;-3.75;83.50;100240.28;5110193;27;20031;-81
2022/12/14 06:11:23;;;;;;;12.60;7.32;;;;;;;-3.77;83.28;100238.47;5119246;27;20053;-81
2022/12/14 06:13:49;;;;;;;16.33;7.35;;;;;;;-3.79;83.14;100228.06;5098875;27;20063;-80
2022/12/14 06:16:17;;;;;;;14.52;7.93;;;;;;;-3.79;83.19;100233.25;5101793;27;20031;-81
2022/12/14 06:18:48;;;;;;;14.43;7.35;;;;;;;-3.85;82.56;100222.75;5142595;27;20477;-80
2022/12/14 06:21:15;;;;;;;13.25;7.20;;;;;;;-3.81;83.20;100231.47;5120045;27;20034;-80
2022/12/14 06:23:40;;;;;;;15.40;7.30;;;;;;;-3.85;83.05;100235.69;5136661;27;20022;-80
2022/12/14 06:26:07;;;;;;;16.98;7.50;;;;;;;-3.83;83.05;100222.78;5122354;27;20035;-80
2022/12/14 06:28:33;;;;;;;24.90;7.60;;;;;;;-3.84;83.15;100228.78;5151401;27;20029;-80
2022/12/14 06:30:59;;;;;;;12.30;6.85;;;;;;;-3.86;82.90;100223.56;5116069;27;20062;-80
2022/12/14 06:33:26;;;;;;;17.00;8.25;;;;;;;-3.86;82.99;100233.91;5137063;27;20039;-80
2022/12/14 06:35:51;;;;;;;12.90;7.78;;;;;;;-3.87;83.46;100232.19;5095199;27;20659;-80
2022/12/14 06:38:16;;;;;;;12.73;7.10;;;;;;;-3.87;83.02;100234.78;5120417;27;20037;-81
2022/12/14 06:40:43;;;;;;;13.88;7.85;;;;;;;-3.87;83.50;100241.66;5143105;27;20047;-80
2022/12/14 06:43:09;;;;;;;17.58;7.60;;;;;;;-3.86;83.31;100243.41;5122981;27;20031;-81
2022/12/14 06:45:35;;;;;;;15.98;7.60;;;;;;;-3.89;83.61;100239.88;5142038;27;20516;-80
2022/12/14 06:48:00;;;;;;;13.38;7.65;;;;;;;-3.89;83.21;100246.78;5132936;27;20078;-80
2022/12/14 06:50:26;;;;;;;16.05;8.65;;;;;;;-3.92;83.31;100245.00;5131744;27;20039;-80
2022/12/14 06:52:54;;;;;;;14.65;8.07;;;;;;;-3.91;83.76;100236.41;5149091;27;20046;-80
2022/12/14 06:55:21;;;;;;;13.98;7.63;;;;;;;-3.91;83.45;100243.28;5133709;27;20088;-80
2022/12/14 06:57:49;;;;;;;13.68;7.45;;;;;;;-3.91;83.47;100245.84;5114955;27;20039;-80
2022/12/14 07:00:14;;;;;;;14.73;7.88;;;;;;;-3.94;83.66;100248.38;5133644;27;20026;-80
2022/12/14 07:02:40;;;;;;;14.63;7.65;;;;;;;-3.97;83.80;100244.00;5115320;27;20113;-80
2022/12/14 07:05:06;;;;;;;17.08;7.68;;;;;;;-3.97;83.69;100259.50;5115117;27;20489;-80
2022/12/14 07:07:32;;;;;;;11.85;7.45;;;;;;;-3.98;84.21;100252.59;5133629;27;20038;-80
2022/12/14 07:09:58;;;;;;;17.27;8.35;;;;;;;-4.00;84.09;100259.44;5118540;27;20385;-80
2022/12/14 07:12:23;;;;;;;14.93;8.15;;;;;;;-4.02;84.16;100258.50;5108009;28;20043;-80
2022/12/14 07:14:49;;;;;;;15.65;7.95;;;;;;;-4.03;83.81;100253.28;5112369;27;20464;-80
2022/12/14 07:17:14;;;;;;;17.48;8.63;;;;;;;-4.04;84.21;100257.59;5106835;27;20135;-80
2022/12/14 07:19:42;;;;;;;19.52;8.00;;;;;;;-4.07;83.63;100256.63;5114937;28;20123;-80
2022/12/14 07:22:08;;;;;;;14.70;8.30;;;;;;;-4.08;84.05;100254.88;5117823;27;20038;-80
2022/12/14 07:24:33;;;;;;;17.38;7.88;;;;;;;-4.12;84.14;100254.78;5124023;28;20034;-80
2022/12/14 07:26:59;;;;;;;14.63;7.25;;;;;;;-4.13;84.12;100257.31;5095248;28;20370;-80
2022/12/14 07:29:24;;;;;;;13.75;7.50;;;;;;;-4.19;83.86;100260.63;5131443;27;20486;-80
2022/12/14 07:31:50;;;;;;;15.63;8.57;;;;;;;-4.22;83.69;100263.13;5135067;27;20042;-80
2022/12/14 07:34:16;;;;;;;21.80;7.32;;;;;;;-4.25;84.05;100256.97;5114253;28;20019;-80
2022/12/14 07:36:42;;;;;;;13.70;7.80;;;;;;;-4.30;84.41;100254.28;5128652;27;20043;-80
2022/12/14 07:39:13;;;;;;;13.90;7.78;;;;;;;-4.30;83.92;100258.56;5114313;28;20555;-80
2022/12/14 07:41:39;;;;;;;16.45;8.73;;;;;;;-4.34;84.28;100262.78;5132939;28;20051;-80
2022/12/14 07:44:04;;;;;;;12.40;7.68;;;;;;;-4.37;84.24;100257.53;5147720;27;20036;-79
2022/12/14 07:46:30;;;;;;;16.65;8.07;;;;;;;-4.38;84.21;100261.78;5146012;27;20027;-80
2022/12/14 07:48:57;;;;;;;16.48;7.78;;;;;;;-4.41;84.15;100264.28;5126430;27;20031;-80
2022/12/14 07:51:25;;;;;;;17.17;8.20;;;;;;;-4.45;84.22;100261.56;5153520;27;20038;-80
2022/12/14 07:53:51;;;;;;;17.45;9.23;;;;;;;-4.47;84.21;100271.88;5135301;27;20022;-80
2022/12/14 07:56:19;;;;;;;14.73;7.85;;;;;;;-4.49;84.44;100273.53;5154006;27;20363;-80
2022/12/14 07:58:45;;;;;;;15.60;7.65;;;;;;;-4.53;84.60;100272.56;5134870;27;20034;-80
2022/12/14 08:01:25;;;;;;;19.70;10.05;;;;;;;-4.53;84.86;100274.28;5122579;28;20043;-80
2022/12/14 08:03:52;;;;;;;16.88;8.73;;;;;;;-4.60;84.28;100273.22;5123800;27;20479;-80
2022/12/14 08:06:20;;;;;;;21.27;9.30;;;;;;;-4.61;84.67;100280.94;5140914;27;20101;-79
2022/12/14 08:08:45;;;;;;;17.45;9.40;;;;;;;-4.63;84.66;100287.75;5125431;28;20035;-80
2022/12/14 08:11:12;;;;;;;16.63;9.48;;;;;;;-4.67;84.78;100286.78;5139112;27;20079;-80
2022/12/14 08:13:38;;;;;;;13.60;8.18;;;;;;;-4.70;84.51;100278.94;5135185;27;20084;-80
2022/12/14 08:16:09;;;;;;;14.98;8.23;;;;;;;-4.71;84.50;100277.19;5120632;27;20034;-80
2022/12/14 08:18:35;;;;;;;;;;;;;;;-4.67;84.91;100285.88;5147405;27;20118;-80
2022/12/14 08:21:01;;;;;;;16.45;8.48;;;;;;;-4.76;84.38;100283.91;5144970;27;19973;-80
2022/12/14 08:23:27;;;;;;;19.73;9.48;;;;;;;-4.76;84.51;100294.25;5125704;27;20039;-81
2022/12/14 08:25:54;;;;;;;12.70;7.65;;;;;;;-4.80;84.31;100285.53;5136005;27;20039;-81
2022/12/14 08:28:21;;;;;;;15.05;9.02;;;;;;;-4.80;84.51;100295.88;5105408;27;20082;-81
2022/12/14 08:30:47;;;;;;;18.92;9.88;;;;;;;-4.82;84.33;100302.69;5142714;27;20043;-81
2022/12/14 08:33:13;;;;;;;14.80;7.93;;;;;;;-4.83;84.52;100298.34;5145878;27;20382;-81
2022/12/14 08:35:38;;;;;;;18.48;8.25;;;;;;;-4.84;84.38;100295.72;5117231;27;20039;-80
2022/12/14 08:38:03;;;;;;;16.50;8.98;;;;;;;-4.86;84.84;100297.38;5100732;27;20044;-80
2022/12/14 08:40:29;;;;;;;18.17;9.07;;;;;;;-4.87;84.58;100299.09;5145522;27;20031;-80
2022/12/14 08:42:55;;;;;;;20.95;8.90;;;;;;;-4.89;84.68;100292.13;5115137;27;20145;-81
2022/12/14 08:45:20;;;;;;;15.50;9.43;;;;;;;-4.91;84.73;100286.91;5109539;27;20034;-81
2022/12/14 08:47:46;;;;;;;14.15;8.45;;;;;;;-4.95;84.68;100273.84;5109905;27;20019;-81
2022/12/14 08:50:12;;;;;;;18.02;9.32;;;;;;;-4.94;84.81;100281.66;5146072;27;20042;-81
2022/12/14 08:52:38;;;;;;;14.65;8.52;;;;;;;-4.95;84.89;100285.03;5129591;27;20546;-81
2022/12/14 08:55:05;;;;;;;14.93;8.18;;;;;;;-4.98;84.93;100278.06;5115381;27;20027;-81
2022/12/14 08:57:30;;;;;;;13.73;8.05;;;;;;;-4.93;85.00;100292.84;5117606;27;20039;-81
2022/12/14 08:59:56;;;;;;;13.45;7.97;;;;;;;-4.91;85.38;100292.06;5117866;27;20035;-81
2022/12/14 09:02:21;;;;;;;13.85;7.40;;;;;;;-4.83;85.47;100295.75;5117766;27;20046;-81
2022/12/14 09:04:47;;;;;;;16.15;8.20;;;;;;;-4.80;85.38;100294.97;5091319;27;20027;-80
2022/12/14 09:07:12;;;;;;;16.75;8.27;;;;;;;-4.77;85.03;100287.34;5117646;27;20070;-81
2022/12/14 09:09:38;;;;;;;14.63;7.03;;;;;;;-4.70;85.55;100290.97;5136200;27;20031;-81
2022/12/14 09:12:06;;;;;;;12.80;7.28;;;;;;;-4.73;85.12;100291.75;5135656;27;20023;-81
2022/12/14 09:14:35;;;;;;;18.33;9.45;;;;;;;-4.69;85.21;100303.94;5136123;27;20444;-81
2022/12/14 09:17:01;;;;;;;18.75;7.88;;;;;;;-4.71;84.98;100297.84;5127717;27;20033;-81
2022/12/14 09:19:27;;;;;;;12.93;8.07;;;;;;;-4.70;85.27;100302.19;5123020;27;20108;-81
2022/12/14 09:21:53;;;;;;;17.70;8.23;;;;;;;-4.65;85.50;100316.13;5154459;27;20053;-81
2022/12/14 09:24:19;;;;;;;16.13;8.68;;;;;;;-4.64;85.48;100317.88;5137803;27;20039;-82
2022/12/14 09:26:45;;;;;;;15.23;8.43;;;;;;;-4.62;84.93;100318.81;5146356;27;20035;-81
2022/12/14 09:29:16;;;;;;;14.38;8.35;;;;;;;-4.56;85.63;100313.81;5130759;27;20019;-81
2022/12/14 09:31:41;;;;;;;14.20;7.57;;;;;;;-4.49;85.03;100308.84;5117376;27;20035;-82
2022/12/14 09:34:07;;;;;;;12.82;6.82;;;;;;;-4.43;85.31;100309.03;5095987;27;20034;-76
2022/12/14 09:36:34;;;;;;;19.13;8.60;;;;;;;-4.36;85.37;100309.25;5119801;27;20026;-77
2022/12/14 09:39:00;;;;;;;12.18;7.55;;;;;;;-4.31;85.47;100304.22;5120341;27;20390;-77
2022/12/14 09:41:34;;;;;;;12.23;7.82;;;;;;;-4.21;84.77;100307.94;5116751;27;20047;-77
2022/12/14 09:44:16;;;;;;;14.45;7.35;;;;;;;-4.15;85.18;100311.59;5099448;27;20043;-77
2022/12/14 09:47:00;;;;;;;16.77;8.27;;;;;;;-4.08;84.64;100311.75;5130922;27;20042;-77
2022/12/14 09:49:32;;;;;;;18.13;7.75;;;;;;;-4.02;84.85;100306.78;5135033;27;20023;-76
2022/12/14 09:52:04;;;;;;;15.90;8.35;;;;;;;-3.96;84.71;100306.94;5116387;27;20039;-77
2022/12/14 09:54:36;;;;;;;24.75;8.63;;;;;;;-3.86;84.66;100310.66;5108227;27;20426;-76
2022/12/14 09:57:26;;;;;;;16.50;8.70;;;;;;;-3.78;84.18;100310.06;5139269;27;20034;-77
2022/12/14 09:59:53;;;;;;;14.82;6.88;;;;;;;-3.72;84.01;100306.75;5116468;27;20063;-77
2022/12/14 10:02:56;;;;;;;13.15;7.88;;;;;;;-3.68;83.99;100291.34;5134289;27;20034;-77
2022/12/14 10:05:55;;;;;;;13.48;7.30;;;;;;;-3.55;83.58;100294.25;5091346;27;20051;-77
2022/12/14 10:08:37;;;;;;;14.77;7.38;;;;;;;-3.45;83.46;100288.47;5109746;27;20027;-77
2022/12/14 10:11:15;;;;;;;19.75;10.23;;;;;;;-3.36;83.46;100296.50;5135396;27;20035;-77
2022/12/14 10:14:04;;;;;;;15.65;9.43;;;;;;;-3.29;83.09;100305.28;5123435;27;20070;-77
2022/12/14 10:16:39;;;;;;;17.95;10.23;;;;;;;-3.19;82.54;100303.78;5120354;27;20031;-77
2022/12/14 10:19:36;;;;;;;15.73;7.90;;;;;;;-3.14;82.71;100289.25;5110167;27;20127;-77
2022/12/14 10:22:09;;;;;;;18.02;8.27;;;;;;;-3.07;82.55;100294.59;5134467;27;20034;-78
2022/12/14 10:24:42;;;;;;;14.98;8.32;;;;;;;-3.05;82.49;100292.94;5153357;27;20034;-78
2022/12/14 10:27:13;;;;;;;16.48;7.53;;;;;;;-2.97;82.03;100295.72;5117697;27;20031;-78
2022/12/14 10:29:41;;;;;;;18.57;7.70;;;;;;;-2.88;82.08;100300.25;5153208;27;20031;-83
2022/12/14 10:32:09;;;;;;;15.50;8.18;;;;;;;-2.87;81.11;100302.88;5152415;27;20027;-83
2022/12/14 10:34:39;;;;;;;15.52;7.70;;;;;;;-2.85;81.52;100305.50;5136012;27;20011;-83
2022/12/14 10:37:23;;;;;;;32.30;12.02;;;;;;;-2.79;82.10;100305.66;5149900;27;20038;-83
2022/12/14 10:39:57;;;;;;;25.52;11.18;;;;;;;-2.76;80.89;100307.44;5147834;27;20501;-84
2022/12/14 10:42:53;;;;;;;12.88;7.50;;;;;;;-2.69;81.39;100309.34;5133827;27;20072;-84
2022/12/14 10:46:03;;;;;;;15.18;7.57;;;;;;;-2.64;81.75;100303.41;5133181;27;20047;-84
2022/12/14 10:48:53;;;;;;;15.48;7.78;;;;;;;-2.60;81.32;100294.88;5102916;27;20129;-83
2022/12/14 10:51:26;;;;;;;13.35;7.80;;;;;;;-2.52;80.66;100305.41;5136246;27;20027;-84
2022/12/14 10:54:01;;;;;;;15.65;8.27;;;;;;;-2.48;80.67;100304.63;5136431;27;20031;-84
2022/12/14 10:56:30;;;;;;;16.38;8.25;;;;;;;-2.45;80.42;100301.22;5126330;27;20031;-84
2022/12/14 10:59:14;;;;;;;14.48;8.13;;;;;;;-2.40;80.20;100303.09;5121319;27;20455;-83
2022/12/14 11:01:41;;;;;;;14.90;7.40;;;;;;;-2.40;80.88;100302.19;5121365;27;20066;-84
2022/12/14 11:04:31;;;;;;;14.13;7.55;;;;;;;-2.37;80.80;100299.69;5129227;27;20050;-84
2022/12/14 11:07:11;;;;;;;14.25;7.50;;;;;;;-2.32;79.91;100294.59;5130184;27;20034;-84
2022/12/14 11:09:38;;;;;;;16.25;8.40;;;;;;;-2.29;80.11;100297.25;5144324;27;20033;-84
2022/12/14 11:12:13;;;;;;;12.65;6.45;;;;;;;-2.27;79.75;100286.06;5133884;27;20023;-84
2022/12/14 11:14:54;;;;;;;13.40;6.90;;;;;;;-2.24;80.08;100295.63;5120386;27;20031;-84
2022/12/14 11:17:39;;;;;;;13.32;6.75;;;;;;;-2.18;78.67;100296.66;5119007;27;20027;-84
2022/12/14 11:20:08;;;;;;;16.80;7.82;;;;;;;-2.13;78.90;100298.44;5118940;27;20034;-84
2022/12/14 11:22:55;;;;;;;15.25;8.30;;;;;;;-2.10;80.11;100294.22;5136248;27;20031;-85
2022/12/14 11:25:41;;;;;;;14.55;6.95;;;;;;;-2.02;79.26;100296.97;5141094;27;20053;-84
2022/12/14 11:28:33;;;;;;;13.23;7.35;;;;;;;-1.96;78.52;100305.72;5134094;27;20382;-85
2022/12/14 11:31:03;;;;;;;13.80;6.32;;;;;;;-1.93;77.01;100296.25;5133497;27;20382;-85
2022/12/14 11:33:44;;;;;;;14.20;6.32;;;;;;;-1.96;77.37;100286.69;5128509;27;20034;-84
2022/12/14 11:36:21;;;;;;;;;;;;;;;-1.87;79.12;100291.19;5134107;27;20050;-85
2022/12/14 11:38:58;;;;;;;13.73;8.02;;;;;;;-1.70;78.85;100287.19;5127858;27;19915;-85
2022/12/14 11:41:30;;;;;;;15.25;6.90;;;;;;;-1.40;79.57;100292.06;5139768;27;20035;-85
2022/12/14 11:44:02;;;;;;;14.48;7.53;;;;;;;-1.11;79.27;100294.31;5135875;27;20082;-85
2022/12/14 11:46:44;;;;;;;;;;;;;;;-0.96;81.15;100291.09;5156194;27;20027;-86
2022/12/14 11:49:28;;;;;;;9.95;5.53;;;;;;;-0.91;77.38;100285.09;5123080;27;19965;-80
2022/12/14 11:51:54;;;;;;;13.88;7.05;;;;;;;-0.88;75.50;100284.28;5133047;27;20038;-79